Father Pat — WDG2791 — position and weather

sailwx.info

Track history (hours):
 
Tides and Currents Weather Stations Pressure Air Temp Water Temp Dewpoint Dewpoint Depression Visibility Wind Speed Wind Dir Waves Ship Positions

Father Pat

Owner: Marquette Transportation Company Gulf-Inland, LLC, Jefferson, LA. More information available from US FCC via Universal Licensing System and Coast Guard Vessel Documentation Center.

Last reported at 2014-Nov-19 16:09 UTC. Time now 2014-Nov-22 08:54 UTC.
Position N 29°42' W 091°32'.

Type: Towing. MMSI: 367519320.

Date/timePositionNaut miles runAvg speedWind from/ knotsBaromVisibWave heightAir tempDewpointWater temp
2014-Nov-19 16:09N 29°42' W 091°32'3 5.2
2014-Nov-19 15:31N 29°41' W 091°28'5 4.8
2014-Nov-19 14:33N 29°39' W 091°24'4 4.1
2014-Nov-19 13:33N 29°38' W 091°19'5 5.3
2014-Nov-19 12:33N 29°41' W 091°13'5 4.6
2014-Nov-19 11:33N 29°45' W 091°11'4 4.0
2014-Nov-19 10:33N 29°49' W 091°10'1 1.0
2014-Nov-19 09:33N 29°50' W 091°10'0 0.0
2014-Nov-19 08:33N 29°50' W 091°10'0 0.1
2014-Nov-19 07:33N 29°50' W 091°10'3 3.1
2014-Nov-19 06:33N 29°52' W 091°13'4 4.3
2014-Nov-19 05:31N 29°56' W 091°15'2 0.1
2014-Nov-17 08:21N 29°54' W 091°13'3 3.8
2014-Nov-17 07:32N 29°51' W 091°12'4 4.2
2014-Nov-17 06:33N 29°48' W 091°10'4 4.1
2014-Nov-17 05:33N 29°44' W 091°11'3 3.2
2014-Nov-17 04:33N 29°41' W 091°13'3 2.6
2014-Nov-17 03:33N 29°39' W 091°15'5 4.8
2014-Nov-17 02:33N 29°39' W 091°21'5 5.0
2014-Nov-17 01:33N 29°40' W 091°26'5 4.9
2014-Nov-17 00:31N 29°42' W 091°32'1 0.1
2014-Nov-16 12:21N 29°43' W 091°33'3 3.6
2014-Nov-16 11:33N 29°42' W 091°30'4 4.2
2014-Nov-16 10:33N 29°40' W 091°26'4 4.4
2014-Nov-16 09:33N 29°38' W 091°21'4 4.0
2014-Nov-16 08:33N 29°39' W 091°16'4 4.1
2014-Nov-16 07:33N 29°42' W 091°13'1 1.3
2014-Nov-16 06:33N 29°43' W 091°12'3 3.1
2014-Nov-16 05:33N 29°46' W 091°11'4 4.0
2014-Nov-16 04:33N 29°50' W 091°11'4 4.3
2014-Nov-16 03:32N 29°54' W 091°13'  
2014-Nov-11 17:30N 29°54' W 090°05'0 0.0
2014-Nov-11 15:24N 29°54' W 090°05'0 0.0
2014-Nov-11 14:21N 29°54' W 090°05'0 0.0
2014-Nov-11 13:30N 29°54' W 090°05'0 0.0
2014-Nov-11 12:28N 29°54' W 090°05'0 0.0
2014-Nov-11 11:23N 29°54' W 090°05'0 0.0
2014-Nov-11 10:28N 29°54' W 090°05'0 0.0
2014-Nov-11 09:31N 29°54' W 090°05'0 0.0
2014-Nov-11 08:32N 29°54' W 090°05'0 0.0
2014-Nov-11 07:32N 29°54' W 090°05'0 0.0
2014-Nov-11 06:26N 29°54' W 090°05'0 0.0
2014-Nov-11 05:32N 29°54' W 090°05'0 0.0
2014-Nov-11 04:33N 29°54' W 090°05'0 0.0
2014-Nov-11 03:33N 29°54' W 090°05'0 0.0
2014-Nov-11 02:29N 29°54' W 090°05'0 0.0
2014-Nov-10 00:32N 29°54' W 090°05'  
Track history (hours):
 
Tides and Currents Weather Stations Pressure Air Temp Water Temp Dewpoint Dewpoint Depression Visibility Wind Speed Wind Dir Waves Ship Positions

Father Pat

Owner: Marquette Transportation Company Gulf-Inland, LLC, Jefferson, LA. More information available from US FCC via Universal Licensing System and Coast Guard Vessel Documentation Center.

Last reported at 2014-Nov-19 16:09 UTC. Time now 2014-Nov-22 08:54 UTC.
Position N 29°42' W 091°32'.

Type: Towing. MMSI: 367519320.

Date/timePositionNaut miles runAvg speedWind from/ knotsBaromVisibWave heightAir tempDewpointWater temp
2014-Nov-19 16:09N 29°42' W 091°32'3 5.2
2014-Nov-19 15:31N 29°41' W 091°28'5 4.8
2014-Nov-19 14:33N 29°39' W 091°24'4 4.1
2014-Nov-19 13:33N 29°38' W 091°19'5 5.3
2014-Nov-19 12:33N 29°41' W 091°13'5 4.6
2014-Nov-19 11:33N 29°45' W 091°11'4 4.0
2014-Nov-19 10:33N 29°49' W 091°10'1 1.0
2014-Nov-19 09:33N 29°50' W 091°10'0 0.0
2014-Nov-19 08:33N 29°50' W 091°10'0 0.1
2014-Nov-19 07:33N 29°50' W 091°10'3 3.1
2014-Nov-19 06:33N 29°52' W 091°13'4 4.3
2014-Nov-19 05:31N 29°56' W 091°15'2 0.1
2014-Nov-17 08:21N 29°54' W 091°13'3 3.8
2014-Nov-17 07:32N 29°51' W 091°12'4 4.2
2014-Nov-17 06:33N 29°48' W 091°10'4 4.1
2014-Nov-17 05:33N 29°44' W 091°11'3 3.2
2014-Nov-17 04:33N 29°41' W 091°13'3 2.6
2014-Nov-17 03:33N 29°39' W 091°15'5 4.8
2014-Nov-17 02:33N 29°39' W 091°21'5 5.0
2014-Nov-17 01:33N 29°40' W 091°26'5 4.9
2014-Nov-17 00:31N 29°42' W 091°32'1 0.1
2014-Nov-16 12:21N 29°43' W 091°33'3 3.6
2014-Nov-16 11:33N 29°42' W 091°30'4 4.2
2014-Nov-16 10:33N 29°40' W 091°26'4 4.4
2014-Nov-16 09:33N 29°38' W 091°21'4 4.0
2014-Nov-16 08:33N 29°39' W 091°16'4 4.1
2014-Nov-16 07:33N 29°42' W 091°13'1 1.3
2014-Nov-16 06:33N 29°43' W 091°12'3 3.1
2014-Nov-16 05:33N 29°46' W 091°11'4 4.0
2014-Nov-16 04:33N 29°50' W 091°11'4 4.3
2014-Nov-16 03:32N 29°54' W 091°13'  
2014-Nov-11 17:30N 29°54' W 090°05'0 0.0
2014-Nov-11 15:24N 29°54' W 090°05'0 0.0
2014-Nov-11 14:21N 29°54' W 090°05'0 0.0
2014-Nov-11 13:30N 29°54' W 090°05'0 0.0
2014-Nov-11 12:28N 29°54' W 090°05'0 0.0
2014-Nov-11 11:23N 29°54' W 090°05'0 0.0
2014-Nov-11 10:28N 29°54' W 090°05'0 0.0
2014-Nov-11 09:31N 29°54' W 090°05'0 0.0
2014-Nov-11 08:32N 29°54' W 090°05'0 0.0
2014-Nov-11 07:32N 29°54' W 090°05'0 0.0
2014-Nov-11 06:26N 29°54' W 090°05'0 0.0
2014-Nov-11 05:32N 29°54' W 090°05'0 0.0
2014-Nov-11 04:33N 29°54' W 090°05'0 0.0
2014-Nov-11 03:33N 29°54' W 090°05'0 0.0
2014-Nov-11 02:29N 29°54' W 090°05'0 0.0
2014-Nov-10 00:32N 29°54' W 090°05'  

Dump ship's entire track history